Aviation Digital Data Service (ADDS)

Output produced by METARs form (0933 UTC 25 February 2018)
found at http://aviationweather.gov/adds/metars/
 
KPAE 250853Z AUTO 15019G32KT 10SM BKN016 BKN022 OVC080 04/01 A2996 RMK AO2 PK WND 15032/0847 SLP149 T00440011 56030
KPAE 250520Z 2506/2606 20012G25KT P6SM VCSH SCT030 BKN060 BKN080 
     TEMPO 2506/2509 -RA BKN040 
     FM250900 19015G25KT P6SM -RA OVC035 
     FM251200 24020G30KT P6SM -RA OVC015 
     FM251800 26012KT P6SM -SHRA SCT020 OVC030
       
KAWO 250856Z AUTO 13015G22KT 10SM -RA OVC023 03/01 A2999 RMK AO2 RAB01UPB02E09 SLP159 P0000 60000 T00330006 58038
KBFI 250853Z 17013G22KT 10SM FEW019 OVC025 05/02 A3005 RMK AO2 RAE39 SLP174 P0000 60001 T00500022 58022
KBFI 250520Z 2506/2606 20010G20KT P6SM VCSH SCT030 BKN060 BKN080 
     FM250900 19015G25KT P6SM -RA OVC035 
     FM251200 22019G27KT P6SM -RA OVC025 
     FM251800 22010KT P6SM VCSH SCT025 BKN035
       
KRNT 250853Z AUTO 15009KT 10SM -RA OVC021 05/02 A3005 RMK AO2 SLP181 P0001 60001 T00500022 58019
KSEA 250853Z 17016KT 10SM BKN015 OVC023 04/02 A3003 RMK AO2 RAE0758B14E42 PRESFR SLP178 P0002 60002 T00440017 58024
KSEA 250858Z 2509/2612 18010KT P6SM VCSH BKN020 OVC030 
     TEMPO 2509/2510 20012G25KT -RA OVC015 
     FM251000 19015G25KT P6SM -RA OVC035 
     FM251200 22019G27KT P6SM -RA OVC020 
     FM251800 22014KT P6SM VCSH SCT020 BKN035 
     FM260200 19008KT P6SM SCT020 BKN040